Portada
METAR-TAF:

METAR-TAF

Aeroports :

Aeroport Internacional de Bahrain

Bahrain, Bahrain

latitud: 26-16N, longitud: 050-39E, altitud: 2 m

Observació

L'informe es va fer fa 12 minuts, a les 21:00 UTC
Vent 7 kt del Oest
Temperatura 34°C
Humitat 53%
Pressió 997 hPa
Visibilitat 10 km o més
sense núvols per sota de 1500 mi sense presència de cumulonimbus.

METAR: OBBI 142100Z 28007KT CAVOK 34/23 Q0997 NOSIG

Hora: 00:12 (21:12 UTC)

Pronòstic

L'informe es va fer fa 4 hores i 9 minuts, a les 17:03 UTC
Pronòstic vàlid del 14 a les 18 UTC al 16 a les 00 UTC
Vent 10 kt del Nord/Nord-Oest
Visibilitat 10 km o més
sense núvols per sota de 1500 mi sense presència de cumulonimbus.
Evolucionant progressivament
l' 15 a les 01 UTC al 15 a les 02 UTC
Vent 15 kt del Nord/Nord-Oest amb ràfegues de 25 kt
Evolucionant progressivament
l' 15 a les 14 UTC al 15 a les 16 UTC
Vent 8 kt del Nord-Oest

TAF: OBBI 141703Z 1418/1600 33010KT CAVOK BECMG 1501/1502 33015G25KT BECMG 1514/1516 32008KT

Observacions i pronòstics meteorològics de més de 4000 aeroports (METAR i TAF).

Les estacions disponibles són els punts grocs i vermells al mapa.

Posi el ratolí al punt desitjat per veure el nom de l'estació.

Feu clic per veure les observacions i els pronòstics meteorològics.

Per canviar el mapa: feu clic els botons verds amb una creu de color negre per apropar; al botó verd amb un guió per allunyar la imatge; o en les fletxes verdes per a mapes adjacents.


METAR-TAF: